createdAt,value
2019-05-17T00:00:16.752Z,6.30
2019-05-17T00:02:46.499Z,4.57
2019-05-17T00:05:14.231Z,4.33
2019-05-17T00:07:42.338Z,5.27
2019-05-17T00:10:10.103Z,4.67
2019-05-17T00:12:37.784Z,5.13
2019-05-17T00:15:07.262Z,4.23
2019-05-17T00:17:37.555Z,4.80
2019-05-17T00:20:07.126Z,5.62
2019-05-17T00:22:36.593Z,3.80
2019-05-17T00:25:07.364Z,4.30
2019-05-17T00:27:36.710Z,4.43
2019-05-17T00:30:07.094Z,4.90
2019-05-17T00:32:36.905Z,4.43
2019-05-17T00:35:07.232Z,6.43
2019-05-17T00:37:37.224Z,4.90
2019-05-17T00:40:07.408Z,4.72
2019-05-17T00:42:37.101Z,5.73
2019-05-17T00:45:07.794Z,4.03
2019-05-17T00:47:37.408Z,4.37
2019-05-17T00:50:07.614Z,4.08
2019-05-17T00:52:36.843Z,4.17
2019-05-17T00:55:06.758Z,6.20
2019-05-17T00:57:36.671Z,5.03
2019-05-17T01:00:08.612Z,5.17
2019-05-17T01:02:36.458Z,5.53
2019-05-17T01:05:06.407Z,5.37
2019-05-17T01:07:34.332Z,6.03
2019-05-17T01:10:02.035Z,6.33
2019-05-17T01:12:30.229Z,7.67
2019-05-17T01:14:58.302Z,6.37
2019-05-17T01:17:27.086Z,3.80
2019-05-17T01:19:57.374Z,4.47
2019-05-17T01:22:26.250Z,6.83
2019-05-17T01:24:54.030Z,4.93
2019-05-17T01:27:22.224Z,5.83
2019-05-17T01:29:50.305Z,5.00
2019-05-17T01:32:18.366Z,4.30
2019-05-17T01:34:46.896Z,6.07
2019-05-17T01:37:16.993Z,6.63
2019-05-17T01:39:46.702Z,4.60
2019-05-17T01:42:13.792Z,4.67
2019-05-17T01:44:42.063Z,5.23
2019-05-17T01:47:10.159Z,3.70
2019-05-17T01:49:37.887Z,4.60
2019-05-17T01:52:07.476Z,5.50
2019-05-17T01:54:36.254Z,5.87
2019-05-17T01:57:04.178Z,4.33
2019-05-17T01:59:31.852Z,4.47
2019-05-17T02:02:01.146Z,3.43
2019-05-17T02:04:29.320Z,4.87
2019-05-17T02:06:57.373Z,6.23
2019-05-17T02:09:37.148Z,4.37
2019-05-17T02:11:57.060Z,4.10
2019-05-17T02:14:26.637Z,5.70
2019-05-17T02:16:54.007Z,5.40
2019-05-17T02:19:21.709Z,4.80
2019-05-17T02:21:49.361Z,3.97
2019-05-17T02:24:17.441Z,4.80
2019-05-17T02:26:46.561Z,2.90
2019-05-17T02:29:14.637Z,6.37
2019-05-17T02:31:43.457Z,4.97
2019-05-17T02:34:14.113Z,4.60
2019-05-17T02:36:43.070Z,4.83
2019-05-17T02:39:13.209Z,4.07
2019-05-17T02:41:43.063Z,5.63
2019-05-17T02:44:12.737Z,4.77
2019-05-17T02:46:39.014Z,3.73
2019-05-17T02:49:06.714Z,5.03
2019-05-17T02:51:34.645Z,6.17
2019-05-17T02:54:04.079Z,6.83
2019-05-17T02:56:32.889Z,7.30
2019-05-17T02:59:03.632Z,5.37
2019-05-17T03:01:33.271Z,5.37
2019-05-17T03:04:03.596Z,5.50
2019-05-17T03:06:32.559Z,3.77
2019-05-17T03:08:58.992Z,3.53
2019-05-17T03:11:26.717Z,4.97
2019-05-17T03:13:54.447Z,4.77
2019-05-17T03:16:23.714Z,5.27
2019-05-17T03:18:53.027Z,4.77
2019-05-17T03:21:22.937Z,5.33
2019-05-17T03:23:53.769Z,3.23
2019-05-17T03:26:22.952Z,3.60
2019-05-17T03:28:53.574Z,4.77
2019-05-17T03:31:19.218Z,4.30
2019-05-17T03:33:47.183Z,4.07
2019-05-17T03:36:16.761Z,2.83
2019-05-17T03:38:44.663Z,2.93
2019-05-17T03:41:22.798Z,4.20
2019-05-17T03:43:44.196Z,4.43
2019-05-17T03:46:13.870Z,4.77
2019-05-17T03:48:43.539Z,3.53
2019-05-17T03:51:13.154Z,4.97
2019-05-17T03:53:43.880Z,6.57
2019-05-17T03:56:13.148Z,5.10
2019-05-17T03:58:39.114Z,3.70
2019-05-17T04:01:06.810Z,4.70
2019-05-17T04:03:35.546Z,3.33
2019-05-17T04:06:04.124Z,4.87
2019-05-17T04:08:33.416Z,4.30
2019-05-17T04:11:17.618Z,3.57
2019-05-17T04:13:33.718Z,3.93
2019-05-17T04:16:05.699Z,3.43
2019-05-17T04:18:30.264Z,3.43
2019-05-17T04:20:58.334Z,3.70
2019-05-17T04:23:26.369Z,4.57
2019-05-17T04:25:54.490Z,3.70
2019-05-17T04:28:23.080Z,5.27
2019-05-17T04:30:52.809Z,3.77
2019-05-17T04:33:22.890Z,6.63
2019-05-17T04:35:49.756Z,3.83
2019-05-17T04:38:17.509Z,4.33
2019-05-17T04:40:45.214Z,5.83
2019-05-17T04:43:13.649Z,4.53
2019-05-17T04:45:42.588Z,3.83
2019-05-17T04:48:13.095Z,3.37
2019-05-17T04:50:42.798Z,3.50
2019-05-17T04:53:12.928Z,4.60
2019-05-17T04:55:42.851Z,3.00
2019-05-17T04:58:08.928Z,3.87
2019-05-17T05:00:36.678Z,3.23
2019-05-17T05:03:04.767Z,3.17
2019-05-17T05:05:33.202Z,3.23
2019-05-17T05:08:02.977Z,4.33
2019-05-17T05:10:33.393Z,4.07
2019-05-17T05:13:02.774Z,4.17
2019-05-17T05:15:37.170Z,4.23
2019-05-17T05:18:05.379Z,6.78
2019-05-17T05:20:33.106Z,5.93
2019-05-17T05:23:02.644Z,8.73
2019-05-17T05:25:32.302Z,10.90
2019-05-17T05:28:02.296Z,7.03
2019-05-17T05:30:32.005Z,4.57
2019-05-17T05:33:01.849Z,4.83
2019-05-17T05:35:28.733Z,4.80
2019-05-17T05:37:56.659Z,3.83
2019-05-17T05:40:24.355Z,3.53
2019-05-17T05:42:52.047Z,3.60
2019-05-17T05:45:19.774Z,3.33
2019-05-17T05:47:47.494Z,2.27
2019-05-17T05:50:17.663Z,2.87
2019-05-17T05:52:44.861Z,3.40
2019-05-17T05:55:13.089Z,2.60
2019-05-17T05:57:42.098Z,3.27
2019-05-17T06:00:12.670Z,2.77
2019-05-17T06:02:41.923Z,3.63
2019-05-17T06:05:12.570Z,2.67
2019-05-17T06:07:41.509Z,2.03
2019-05-17T06:10:09.715Z,2.73
2019-05-17T06:12:37.427Z,2.33
2019-05-17T06:15:07.179Z,2.63
2019-05-17T06:17:35.017Z,2.20
2019-05-17T06:20:03.421Z,3.10
2019-05-17T06:22:31.846Z,1.57
2019-05-17T06:24:59.647Z,3.53
2019-05-17T06:27:27.709Z,2.10
2019-05-17T06:29:55.673Z,2.37
2019-05-17T06:32:23.844Z,3.07
2019-05-17T06:34:51.586Z,3.67
2019-05-17T06:37:19.269Z,2.93
2019-05-17T06:39:47.367Z,2.70
2019-05-17T06:42:15.170Z,2.80
2019-05-17T06:44:43.215Z,3.10
2019-05-17T06:47:11.881Z,3.00
2019-05-17T06:49:42.323Z,2.80
2019-05-17T06:52:11.575Z,2.87
2019-05-17T06:54:38.925Z,2.90
2019-05-17T06:57:06.731Z,2.77
2019-05-17T06:59:34.393Z,3.67
2019-05-17T07:02:02.127Z,3.77
2019-05-17T07:04:30.071Z,3.23
2019-05-17T07:07:15.969Z,3.57
2019-05-17T07:09:43.837Z,3.47
2019-05-17T07:12:11.535Z,3.47
2019-05-17T07:14:40.109Z,2.97
2019-05-17T07:17:09.823Z,2.13
2019-05-17T07:19:39.891Z,2.17
2019-05-17T07:22:09.433Z,3.10
2019-05-17T07:24:36.830Z,3.40
2019-05-17T07:27:05.112Z,2.57
2019-05-17T07:29:32.810Z,3.33
2019-05-17T07:32:00.498Z,2.37
2019-05-17T07:34:30.813Z,2.87
2019-05-17T07:36:59.638Z,1.63
2019-05-17T07:39:26.987Z,2.67
2019-05-17T07:41:55.010Z,2.43
2019-05-17T07:44:22.847Z,2.63
2019-05-17T07:46:51.787Z,1.53
2019-05-17T07:49:20.065Z,3.00
2019-05-17T07:51:50.172Z,2.77
2019-05-17T07:54:19.731Z,2.90
2019-05-17T07:56:47.658Z,2.50
2019-05-17T07:59:15.631Z,2.43
2019-05-17T08:01:43.363Z,2.57
2019-05-17T08:04:11.447Z,2.07
2019-05-17T08:06:40.307Z,2.30
2019-05-17T08:09:13.407Z,1.97
2019-05-17T08:11:39.528Z,2.53
2019-05-17T08:14:07.323Z,2.13
2019-05-17T08:16:35.338Z,2.33
2019-05-17T08:19:03.038Z,3.10
2019-05-17T08:21:31.151Z,3.00
2019-05-17T08:24:00.155Z,2.53
2019-05-17T08:26:29.713Z,2.93
2019-05-17T08:28:57.341Z,3.90
2019-05-17T08:31:25.080Z,4.23
2019-05-17T08:33:52.744Z,3.57
2019-05-17T08:36:20.498Z,2.17
2019-05-17T08:38:50.155Z,2.40
2019-05-17T08:41:20.628Z,2.43
2019-05-17T08:43:47.487Z,3.97
2019-05-17T08:46:15.148Z,4.17
2019-05-17T08:48:43.150Z,3.90
2019-05-17T08:51:10.952Z,7.60
2019-05-17T08:53:39.928Z,8.73
2019-05-17T08:56:09.982Z,4.63
2019-05-17T08:58:37.506Z,4.40
2019-05-17T09:01:05.168Z,4.13
2019-05-17T09:03:32.871Z,3.60
2019-05-17T09:06:02.404Z,4.87
2019-05-17T09:08:29.975Z,3.70
2019-05-17T09:11:00.090Z,2.63
2019-05-17T09:13:27.047Z,20.90
2019-05-17T09:15:54.990Z,9.00
2019-05-17T09:18:23.099Z,4.43
2019-05-17T09:20:51.171Z,4.97
2019-05-17T09:23:19.713Z,5.97
2019-05-17T09:25:49.906Z,4.50
2019-05-17T09:28:17.431Z,3.90
2019-05-17T09:30:45.120Z,4.23
2019-05-17T09:33:12.847Z,3.60
2019-05-17T09:35:41.239Z,4.17
2019-05-17T09:38:09.989Z,3.40
2019-05-17T09:40:40.211Z,3.90
2019-05-17T09:43:09.861Z,3.33
2019-05-17T09:45:36.782Z,3.13
2019-05-17T09:48:05.462Z,3.25
2019-05-17T09:50:33.350Z,3.40
2019-05-17T09:53:01.034Z,2.50
2019-05-17T09:55:30.079Z,3.90
2019-05-17T09:58:00.177Z,3.13
2019-05-17T10:00:29.692Z,2.70
2019-05-17T10:02:57.165Z,3.83
2019-05-17T10:05:24.884Z,2.27
2019-05-17T10:07:52.541Z,2.67
2019-05-17T10:10:20.641Z,3.57
2019-05-17T10:12:49.676Z,2.17
2019-05-17T10:15:17.753Z,3.53
2019-05-17T10:17:45.425Z,2.23
2019-05-17T10:20:13.234Z,2.50
2019-05-17T10:22:40.959Z,3.13
2019-05-17T10:25:09.834Z,3.23
2019-05-17T10:27:40.412Z,3.40
2019-05-17T10:30:10.061Z,2.60
2019-05-17T10:32:40.457Z,1.97
2019-05-17T10:35:07.094Z,3.63
2019-05-17T10:37:35.051Z,4.43
2019-05-17T10:40:02.709Z,2.40
2019-05-17T10:42:30.709Z,2.53
2019-05-17T10:44:59.971Z,4.23
2019-05-17T10:47:29.948Z,3.67
2019-05-17T10:49:57.658Z,3.70
2019-05-17T10:52:25.626Z,3.77
2019-05-17T10:54:53.833Z,2.90
2019-05-17T10:57:21.529Z,2.63
2019-05-17T10:59:49.915Z,3.30
2019-05-17T11:02:19.650Z,3.90
2019-05-17T11:04:50.384Z,2.67
2019-05-17T11:07:19.762Z,3.70
2019-05-17T11:09:46.615Z,2.43
2019-05-17T11:12:14.363Z,1.67
2019-05-17T11:14:52.364Z,1.80
2019-05-17T11:17:11.986Z,1.67
2019-05-17T11:19:39.918Z,2.93
2019-05-17T11:22:07.670Z,3.40
2019-05-17T11:24:35.433Z,2.50
2019-05-17T11:27:03.484Z,2.93
2019-05-17T11:29:31.595Z,3.20
2019-05-17T11:31:59.509Z,3.83
2019-05-17T11:34:27.457Z,3.30
2019-05-17T11:36:55.323Z,3.40
2019-05-17T11:39:23.393Z,3.37
2019-05-17T11:41:51.494Z,3.53
2019-05-17T11:44:19.331Z,4.23
2019-05-17T11:46:47.018Z,2.77
2019-05-17T11:49:14.770Z,3.07
2019-05-17T11:51:42.425Z,3.40
2019-05-17T11:54:10.538Z,2.60
2019-05-17T11:56:38.256Z,2.83
2019-05-17T11:59:05.921Z,1.70
2019-05-17T12:01:33.826Z,3.00
2019-05-17T12:04:01.926Z,2.70
2019-05-17T12:06:29.650Z,2.13
2019-05-17T12:08:57.313Z,2.00
2019-05-17T12:11:25.083Z,2.13
2019-05-17T12:13:52.849Z,4.37
2019-05-17T12:16:20.833Z,3.87
2019-05-17T12:18:48.647Z,3.23
2019-05-17T12:21:16.507Z,3.97
2019-05-17T12:23:44.181Z,3.53
2019-05-17T12:26:12.340Z,2.00
2019-05-17T12:28:40.249Z,3.10
2019-05-17T12:31:07.954Z,2.50
2019-05-17T12:33:36.007Z,1.63
2019-05-17T12:36:04.583Z,2.33
2019-05-17T12:38:32.364Z,1.37
2019-05-17T12:41:00.212Z,2.23
2019-05-17T12:43:28.440Z,0.83
2019-05-17T12:46:00.668Z,1.90
2019-05-17T12:48:25.717Z,2.73
2019-05-17T12:50:53.479Z,2.60
2019-05-17T12:53:21.137Z,1.87
2019-05-17T12:55:49.484Z,1.80
2019-05-17T12:58:17.535Z,3.13
2019-05-17T13:00:45.276Z,2.57
2019-05-17T13:03:12.968Z,3.37
2019-05-17T13:05:40.661Z,2.70
2019-05-17T13:08:08.560Z,2.43
2019-05-17T13:10:36.699Z,1.23
2019-05-17T13:13:04.778Z,2.40
2019-05-17T13:15:32.614Z,1.90
2019-05-17T13:18:00.366Z,2.50
2019-05-17T13:20:28.107Z,1.57
2019-05-17T13:22:56.001Z,4.17
2019-05-17T13:25:23.693Z,2.90
2019-05-17T13:27:51.979Z,2.37
2019-05-17T13:30:19.784Z,4.50
2019-05-17T13:32:47.460Z,2.37
2019-05-17T13:35:15.184Z,1.80
2019-05-17T13:37:43.313Z,2.33
2019-05-17T13:40:11.363Z,2.50
2019-05-17T13:42:39.236Z,1.93
2019-05-17T13:45:07.826Z,2.33
2019-05-17T13:47:36.280Z,1.97
2019-05-17T13:50:04.842Z,3.17
2019-05-17T13:52:32.714Z,0.90
2019-05-17T13:55:00.569Z,1.57
2019-05-17T13:57:28.307Z,2.47
2019-05-17T13:59:55.968Z,2.47
2019-05-17T14:02:23.682Z,2.20
2019-05-17T14:04:51.342Z,2.70
2019-05-17T14:07:19.057Z,2.70
2019-05-17T14:09:47.191Z,2.70
2019-05-17T14:12:15.140Z,2.10
2019-05-17T14:14:43.132Z,2.87
2019-05-17T14:17:11.051Z,3.00
2019-05-17T14:19:38.769Z,1.93
2019-05-17T14:22:06.928Z,2.50
2019-05-17T14:24:34.602Z,2.60
2019-05-17T14:27:02.566Z,2.43
2019-05-17T14:29:30.271Z,1.90
2019-05-17T14:31:57.970Z,2.00
2019-05-17T14:34:25.834Z,2.40
2019-05-17T14:36:53.591Z,2.07
2019-05-17T14:39:21.425Z,1.67
2019-05-17T14:41:49.275Z,1.83
2019-05-17T14:44:16.941Z,1.67
2019-05-17T14:46:44.925Z,1.70
2019-05-17T14:49:12.814Z,3.17
2019-05-17T14:51:40.835Z,2.20
2019-05-17T14:54:09.116Z,2.40
2019-05-17T14:56:36.813Z,2.30
2019-05-17T14:59:04.542Z,3.17
2019-05-17T15:01:33.021Z,2.43
2019-05-17T15:04:00.782Z,1.97
2019-05-17T15:06:28.690Z,3.17
2019-05-17T15:08:56.392Z,2.20
2019-05-17T15:11:24.413Z,2.33
2019-05-17T15:13:52.300Z,1.60
2019-05-17T15:16:19.990Z,2.10
2019-05-17T15:18:47.704Z,2.57
2019-05-17T15:21:15.628Z,1.80
2019-05-17T15:23:43.398Z,2.17
2019-05-17T15:26:11.135Z,2.30
2019-05-17T15:28:38.765Z,1.87
2019-05-17T15:31:06.710Z,2.03
2019-05-17T15:33:34.751Z,1.90
2019-05-17T15:36:02.611Z,1.33
2019-05-17T15:38:30.643Z,2.20
2019-05-17T15:40:58.489Z,1.23
2019-05-17T15:43:26.213Z,1.37
2019-05-17T15:45:53.851Z,1.90
2019-05-17T15:48:21.538Z,1.73
2019-05-17T15:50:49.281Z,1.53
2019-05-17T15:53:17.013Z,0.93
2019-05-17T15:55:44.763Z,1.47
2019-05-17T15:58:12.377Z,2.07
2019-05-17T16:00:40.459Z,1.63
2019-05-17T16:03:08.201Z,1.93
2019-05-17T16:05:35.967Z,1.93
2019-05-17T16:08:03.646Z,1.13
2019-05-17T16:10:31.589Z,1.30
2019-05-17T16:13:02.928Z,2.00
2019-05-17T16:15:29.042Z,0.87
2019-05-17T16:17:57.027Z,1.47
2019-05-17T16:20:24.677Z,1.37
2019-05-17T16:22:52.604Z,1.90
2019-05-17T16:25:20.636Z,1.20
2019-05-17T16:27:48.277Z,1.07
2019-05-17T16:30:16.576Z,1.03
2019-05-17T16:32:44.715Z,1.63
2019-05-17T16:35:12.946Z,1.40
2019-05-17T16:37:40.888Z,1.53
2019-05-17T16:40:09.257Z,2.00
2019-05-17T16:42:37.389Z,1.87
2019-05-17T16:45:06.607Z,0.90
2019-05-17T16:47:34.670Z,0.93
2019-05-17T16:50:02.484Z,1.77
2019-05-17T16:52:30.542Z,1.17
2019-05-17T16:54:58.224Z,2.13
2019-05-17T16:57:25.892Z,1.30
2019-05-17T16:59:53.630Z,1.43
2019-05-17T17:02:21.326Z,2.10
2019-05-17T17:04:49.345Z,1.30
2019-05-17T17:07:17.075Z,0.97
2019-05-17T17:09:45.119Z,1.13
2019-05-17T17:12:12.789Z,0.80
2019-05-17T17:14:40.714Z,1.03
2019-05-17T17:17:11.650Z,1.40
2019-05-17T17:19:38.082Z,1.13
2019-05-17T17:22:06.051Z,0.77
2019-05-17T17:24:34.168Z,1.00
2019-05-17T17:27:01.909Z,0.67
2019-05-17T17:29:29.901Z,1.23
2019-05-17T17:31:57.791Z,0.73
2019-05-17T17:34:25.496Z,2.20
2019-05-17T17:36:57.034Z,0.87
2019-05-17T17:39:25.283Z,0.60
2019-05-17T17:41:52.943Z,0.23
2019-05-17T17:44:20.821Z,1.07
2019-05-17T17:46:48.697Z,1.80
2019-05-17T17:49:16.438Z,1.40
2019-05-17T17:51:44.102Z,1.13
2019-05-17T17:54:11.761Z,1.43
2019-05-17T17:56:39.494Z,1.40
2019-05-17T17:59:07.159Z,1.47
2019-05-17T18:01:34.867Z,2.33
2019-05-17T18:04:02.800Z,2.27
2019-05-17T18:06:30.454Z,2.30
2019-05-17T18:08:58.365Z,2.70
2019-05-17T18:11:26.369Z,1.57
2019-05-17T18:13:54.134Z,2.30
2019-05-17T18:16:21.862Z,2.87
2019-05-17T18:18:49.497Z,3.67
2019-05-17T18:21:17.214Z,2.10
2019-05-17T18:23:45.246Z,2.03
2019-05-17T18:26:12.978Z,2.23
2019-05-17T18:28:41.155Z,2.90
2019-05-17T18:31:09.233Z,2.23
2019-05-17T18:33:37.444Z,2.60
2019-05-17T18:36:05.632Z,1.60
2019-05-17T18:38:33.587Z,2.70
2019-05-17T18:41:01.216Z,2.90
2019-05-17T18:43:29.332Z,1.63
2019-05-17T18:45:57.069Z,2.50
2019-05-17T18:48:25.024Z,2.23
2019-05-17T18:50:52.655Z,2.33
2019-05-17T18:53:20.404Z,1.83
2019-05-17T18:55:48.241Z,2.40
2019-05-17T18:58:15.917Z,3.63
2019-05-17T19:00:43.871Z,3.47
2019-05-17T19:03:11.983Z,3.50
2019-05-17T19:05:39.833Z,3.53
2019-05-17T19:08:07.498Z,2.80
2019-05-17T19:10:35.238Z,3.60
2019-05-17T19:13:02.953Z,3.30
2019-05-17T19:15:30.750Z,4.00
2019-05-17T19:17:58.445Z,3.93
2019-05-17T19:20:26.079Z,4.73
2019-05-17T19:22:54.089Z,4.97
2019-05-17T19:25:21.913Z,3.60
2019-05-17T19:27:49.975Z,5.27
2019-05-17T19:30:19.140Z,3.83
2019-05-17T19:32:49.977Z,3.60
2019-05-17T19:35:18.165Z,7.30
2019-05-17T19:37:46.235Z,5.77
2019-05-17T19:40:13.989Z,3.37
2019-05-17T19:42:42.046Z,3.77
2019-05-17T19:45:09.868Z,4.30
2019-05-17T19:47:38.005Z,5.03
2019-05-17T19:50:06.928Z,4.10
2019-05-17T19:52:34.601Z,5.07
2019-05-17T19:55:02.334Z,3.93
2019-05-17T19:57:30.017Z,3.73
2019-05-17T19:59:57.903Z,4.50
2019-05-17T20:02:26.011Z,3.60
2019-05-17T20:04:54.243Z,3.57
2019-05-17T20:07:21.982Z,2.33
2019-05-17T20:09:50.088Z,3.17
2019-05-17T20:12:17.754Z,3.93
2019-05-17T20:14:45.555Z,3.70
2019-05-17T20:17:13.261Z,3.00
2019-05-17T20:19:41.036Z,3.63
2019-05-17T20:22:09.084Z,2.67
2019-05-17T20:24:37.098Z,3.97
2019-05-17T20:27:05.080Z,3.47
2019-05-17T20:29:33.182Z,3.90
2019-05-17T20:32:00.848Z,4.80
2019-05-17T20:34:28.533Z,4.73
2019-05-17T20:36:56.205Z,4.53
2019-05-17T20:39:23.915Z,5.67
2019-05-17T20:41:51.649Z,6.60
2019-05-17T20:44:19.402Z,5.97
2019-05-17T20:46:47.172Z,6.17
2019-05-17T20:49:15.255Z,6.13
2019-05-17T20:51:42.970Z,7.03
2019-05-17T20:54:10.667Z,6.50
2019-05-17T20:56:38.714Z,6.87
2019-05-17T20:59:06.423Z,8.00
2019-05-17T21:01:34.114Z,6.80
2019-05-17T21:04:01.822Z,5.30
2019-05-17T21:06:29.524Z,5.07
2019-05-17T21:08:57.280Z,6.10
2019-05-17T21:11:25.009Z,4.97
2019-05-17T21:13:53.050Z,6.53
2019-05-17T21:16:20.714Z,5.20
2019-05-17T21:18:48.744Z,7.27
2019-05-17T21:21:16.458Z,7.03
2019-05-17T21:23:44.309Z,6.10
2019-05-17T21:26:12.305Z,4.43
2019-05-17T21:28:40.105Z,6.03
2019-05-17T21:31:08.205Z,6.80
2019-05-17T21:33:36.353Z,3.70
2019-05-17T21:36:04.538Z,6.03
2019-05-17T21:38:32.322Z,6.17
2019-05-17T21:40:59.977Z,3.30
2019-05-17T21:43:27.612Z,4.43
2019-05-17T21:46:03.592Z,4.20
2019-05-17T21:48:26.540Z,3.70
2019-05-17T21:50:54.376Z,4.30
2019-05-17T21:53:23.755Z,3.13
2019-05-17T21:55:51.552Z,5.27
2019-05-17T21:58:20.503Z,4.63
2019-05-17T22:00:51.346Z,3.53
2019-05-17T22:03:19.012Z,4.00
2019-05-17T22:05:46.750Z,3.37
2019-05-17T22:08:14.751Z,4.83
2019-05-17T22:10:42.813Z,4.27
2019-05-17T22:13:10.508Z,6.57
2019-05-17T22:15:38.182Z,3.37
2019-05-17T22:18:05.884Z,3.53
2019-05-17T22:20:34.029Z,4.50
2019-05-17T22:23:01.700Z,4.63
2019-05-17T22:25:30.617Z,4.30
2019-05-17T22:27:58.371Z,5.70
2019-05-17T22:30:26.226Z,4.23
2019-05-17T22:32:54.086Z,6.10
2019-05-17T22:35:22.293Z,6.23
2019-05-17T22:37:50.338Z,5.53
2019-05-17T22:40:18.042Z,4.47
2019-05-17T22:42:45.740Z,6.17
2019-05-17T22:45:13.412Z,4.33
2019-05-17T22:47:41.377Z,5.10
2019-05-17T22:50:09.291Z,6.90
2019-05-17T22:52:37.129Z,4.60
2019-05-17T22:55:05.819Z,4.77
2019-05-17T22:57:33.505Z,4.37
2019-05-17T23:00:01.542Z,3.73
2019-05-17T23:02:29.368Z,3.77
2019-05-17T23:04:57.279Z,3.73
2019-05-17T23:07:25.451Z,4.07
2019-05-17T23:09:53.727Z,5.23
2019-05-17T23:12:21.365Z,4.30
2019-05-17T23:14:49.037Z,2.47
2019-05-17T23:17:16.987Z,3.77
2019-05-17T23:19:44.669Z,4.90
2019-05-17T23:22:12.361Z,4.07
2019-05-17T23:24:40.025Z,4.23
2019-05-17T23:27:07.909Z,5.23
2019-05-17T23:29:35.906Z,2.97
2019-05-17T23:32:03.783Z,3.63
2019-05-17T23:34:31.954Z,4.10
2019-05-17T23:36:59.679Z,4.13
2019-05-17T23:39:27.708Z,4.67
2019-05-17T23:41:55.633Z,4.77
2019-05-17T23:44:23.365Z,4.23
2019-05-17T23:47:05.787Z,4.57
2019-05-17T23:49:20.852Z,5.10
2019-05-17T23:51:48.513Z,4.97
2019-05-17T23:54:16.226Z,3.33
2019-05-17T23:56:43.910Z,3.70
2019-05-17T23:59:11.692Z,4.43
